Kezdőlap
METAR-TAF:

METAR-TAF

Repülőterek :

Bryansk, Oroszország

földrajzi szélesség: 53-15N, földrajzi hosszúság: 034-19E, magasság: 217 m

Jelenlegi meteorológiai megfigyelések

A jelentés 48 perccel ezelõtt készült, 13:00 UTC
Északi szél 8 kt
Hőmérséklet 9°C
Páratartalom 81%
Légköri nyomás 1017 hPa
Látótávolság: 9000 m
Szakadozott felhőzet 1800 lábon

METAR: UUBP 311300Z 01004MPS 9000 BKN018 09/06 Q1017 R16/190060 NOSIG RMK QFE745/0993

Idő: 16:48 (13:48 UTC)

Előrejelzés

A jelentés 2 órával és 51 perccel ezelõtt készült, 10:57 UTC
Az előrejelzés 31-én 12 óra UTC és 31-én 21 óra UTC között érvényes
Észak-északkeleti szél 10 kt
Látótávolság: 9000 m
Szakadozott felhőzet 1500 lábon

TAF: UUBP 311057Z 3112/3121 03005MPS 9000 BKN015

Meteorológiai megfigyelések és előrejelzések több, mint 4000 repülőtéren (METAR és TAF jelentéseket).

A térképen piros és sárga pontok jelzik az elérhető meteorológiai állomásokat.

Mozgassa az egeret a pont fölött, hogy megjelenjen az állomás neve.

Azután kattintson az időjárási megfigyelések és előrejelzések megtekintéséhez.

A térkép megváltoztatása: kattintson a fekete keresztel jelölt zöld gombra ráközelítéshez, a vonallal jelölt zöld gombra távolításhoz, vagy a zöld nyilakra a szomszédos térképek eléréséhez.


METAR-TAF: